Date,TemperatureHighF,TemperatureAvgF,TemperatureLowF,DewpointHighF,DewpointAvgF,DewpointLowF,HumidityHigh,HumidityAvg,HumidityLow,PressureMaxIn,PressureMinIn,WindSpeedMaxMPH,WindSpeedAvgMPH,GustSpeedMaxMPH,PrecipitationSumIn
2014-1-1,21.0,5.7,-6.0,14.0,3.5,-6.0,92,83,65,30.40,30.07,7,0,10,0.04
2014-1-2,1.0,-5.7,-9.0,0.0,-10.2,-13.0,81,77,71,30.47,29.99,13,2,16,0.00
2014-1-3,0.0,-5.9,-11.0,-6.0,-10.2,-13.0,84,81,75,30.29,29.81,17,3,20,0.00
2014-1-4,23.0,6.7,-14.0,21.0,5.3,-13.0,94,84,64,30.42,30.15,7,0,8,0.00
2014-1-5,35.0,24.1,12.0,29.0,20.1,11.0,96,84,54,30.29,30.12,5,0,6,0.17
2014-1-6,52.0,43.0,30.0,52.0,42.9,29.0,100,99,94,30.12,29.21,20,4,23,0.69
2014-1-7,32.0,17.3,6.0,31.0,8.6,-6.0,93,64,44,29.98,29.28,13,2,17,0.00
2014-1-8,23.0,12.4,6.0,16.0,5.6,0.0,86,69,57,30.34,29.98,9,1,12,0.00
2014-1-9,25.0,12.6,3.0,16.0,6.9,0.0,87,75,44,30.60,30.31,12,1,15,0.00
2014-1-10,29.0,17.3,1.0,28.0,15.7,0.0,96,91,85,30.57,30.27,4,0,4,0.00
2014-1-11,53.0,39.8,22.0,53.0,39.5,21.0,100,98,95,30.28,29.23,21,3,25,0.87
2014-1-12,49.0,42.3,34.0,49.0,37.9,26.0,100,85,67,29.82,29.17,16,1,20,0.05
2014-1-13,46.0,38.2,28.0,41.0,32.2,24.0,92,79,55,30.08,29.82,9,1,12,0.00
2014-1-14,48.0,44.8,41.0,47.0,43.5,40.0,100,96,90,29.93,29.48,12,2,15,1.07
2014-1-15,46.0,38.3,32.0,43.0,37.3,32.0,100,96,78,30.04,29.51,10,1,11,0.08
2014-1-16,37.0,35.9,34.0,37.0,35.7,33.0,100,99,95,29.94,29.87,11,0,11,0.00
2014-1-17,43.0,35.9,29.0,42.0,35.5,29.0,100,98,87,29.96,29.89,8,1,12,0.00
2014-1-18,34.0,31.1,28.0,33.0,31.0,28.0,100,99,92,29.91,29.64,6,1,7,0.00
2014-1-19,34.0,30.4,25.0,35.0,30.3,24.0,100,99,95,29.68,29.38,7,0,8,0.00
2014-1-20,39.0,27.3,8.0,38.0,25.7,4.0,97,92,76,29.79,29.42,13,1,15,0.12
2014-1-21,14.0,6.4,-2.0,4.0,0.2,-6.0,85,70,55,30.04,29.77,11,1,15,0.00
2014-1-22,7.0,3.2,0.0,0.0,-0.7,-6.0,74,70,65,29.95,29.52,17,4,20,0.01
2014-1-23,17.0,6.3,-7.0,14.0,1.1,-13.0,85,73,56,30.01,29.76,10,1,11,0.00
2014-1-24,17.0,4.4,-5.0,11.0,-1.1,-6.0,87,75,53,30.13,30.00,10,1,11,0.00
2014-1-25,40.0,27.5,1.0,36.0,23.6,0.0,97,83,69,30.00,29.17,18,3,22,0.27
2014-1-26,32.0,16.6,7.0,31.0,9.9,0.0,97,72,48,29.90,29.14,15,1,21,0.00
2014-1-27,44.0,28.7,13.0,41.0,22.6,0.0,98,77,41,29.89,29.44,18,2,27,0.22
2014-1-28,21.0,13.7,7.0,11.0,3.7,-6.0,80,59,43,30.24,29.88,11,1,14,0.00
2014-1-29,27.0,15.4,10.0,21.0,5.3,0.0,77,61,50,30.18,29.87,7,0,7,0.00
2014-1-30,30.0,18.5,7.0,23.0,11.1,0.0,87,70,55,30.39,30.06,9,1,11,0.00
2014-1-31,42.0,31.6,25.0,31.0,24.0,21.0,83,72,56,30.13,29.94,9,1,10,0.00
2014-2-1,38.0,31.5,21.0,32.0,23.2,18.0,89,71,52,30.34,30.12,8,1,8,0.00
2014-2-2,37.0,36.4,36.0,37.0,35.9,33.0,98,97,88,29.88,29.85,2,0,2,0.00
2014-2-3,26.0,20.9,16.0,18.0,14.8,11.0,80,74,68,30.25,30.18,7,0,13,0.00
2014-2-4,28.0,16.3,9.0,18.0,12.1,8.0,92,82,59,30.40,30.23,8,0,9,0.00
2014-2-5,21.0,18.8,17.0,18.0,16.8,11.0,92,89,67,30.28,29.71,12,3,16,0.00
2014-2-6,23.0,11.4,5.0,16.0,8.2,4.0,90,82,56,30.20,29.85,7,2,10,0.00
2014-2-7,30.0,14.9,2.0,16.0,9.5,0.0,91,77,43,30.13,30.03,6,1,7,0.00
2014-2-8,29.0,17.9,5.0,14.0,8.4,4.0,89,65,41,30.16,30.05,8,2,12,0.01
2014-2-9,27.0,18.9,9.0,14.0,8.8,4.0,83,61,41,30.14,29.95,10,1,12,0.00
2014-2-10,26.0,17.0,7.0,16.0,11.2,0.0,89,75,51,30.11,29.87,12,2,14,0.00
2014-2-11,22.0,8.6,-2.0,11.0,0.3,-6.0,87,68,42,30.31,30.10,14,2,14,0.00
2014-2-12,25.0,8.8,-6.0,8.0,-1.4,-13.0,84,61,30,30.46,30.31,6,1,9,0.00
2014-2-13,34.0,24.4,9.0,35.0,22.3,8.0,99,90,81,30.40,29.22,15,2,15,0.01
2014-2-14,35.0,27.8,21.0,35.0,24.7,16.0,99,86,76,29.58,28.71,12,2,17,0.09
2014-2-15,34.0,24.7,14.0,28.0,21.8,14.0,97,88,67,29.88,29.40,17,2,18,0.04
2014-2-16,31.0,21.6,11.0,23.0,15.1,4.0,95,75,52,29.80,29.26,21,4,24,0.06
2014-2-17,25.0,14.3,4.0,8.0,2.7,-6.0,81,56,39,30.28,29.80,19,3,22,0.01
2014-2-18,31.0,16.7,-6.0,29.0,11.3,-13.0,97,76,52,30.34,29.84,14,2,16,0.00
2014-2-19,36.0,28.7,17.0,32.0,26.5,16.0,99,91,72,30.03,29.67,15,1,16,0.16
2014-2-20,47.0,35.8,27.0,37.0,29.7,23.0,99,80,42,30.20,29.68,9,1,14,0.65
2014-2-21,46.0,34.9,31.0,46.0,33.8,28.0,100,95,85,30.19,29.60,15,2,18,0.73
2014-2-22,47.0,38.5,29.0,42.0,33.1,26.0,100,82,57,29.86,29.64,12,1,14,0.01
2014-2-23,43.0,35.0,25.0,36.0,29.2,23.0,90,79,65,29.91,29.70,6,0,7,0.00
2014-2-24,39.0,29.7,14.0,32.0,19.6,4.0,92,65,47,29.78,29.60,14,3,19,0.00
2014-2-25,29.0,17.2,7.0,18.0,8.5,0.0,77,64,57,29.87,29.75,11,1,18,0.00
2014-2-26,29.0,14.3,-1.0,21.0,8.9,-6.0,91,76,56,29.86,29.67,10,1,14,0.00
2014-2-27,23.0,11.7,-3.0,21.0,7.1,-6.0,92,80,56,29.80,29.58,7,1,10,0.00
2014-2-28,25.0,15.0,4.0,16.0,5.4,-6.0,92,63,38,30.41,29.66,14,2,16,0.00
2014-3-1,33.0,20.2,-1.0,26.0,13.1,-6.0,82,70,56,30.42,30.00,13,2,21,0.00
2014-3-2,32.0,26.9,18.0,26.0,15.3,0.0,90,60,40,30.01,29.93,10,2,13,0.00
2014-3-3,23.0,14.7,3.0,8.0,-0.9,-13.0,68,45,32,30.24,29.95,14,3,15,0.00
2014-3-4,28.0,15.5,-7.0,14.0,4.3,-13.0,82,57,43,30.32,30.20,10,1,15,0.00
2014-3-5,22.0,14.3,8.0,11.0,3.0,-13.0,80,58,35,30.45,30.23,14,2,16,0.00
2014-3-6,30.0,14.1,-4.0,8.0,-2.4,-13.0,71,46,19,30.57,30.44,11,2,17,0.00
2014-3-7,39.0,23.4,3.0,24.0,16.1,0.0,94,72,47,30.45,29.94,12,1,14,0.00
2014-3-8,48.0,32.6,17.0,36.0,22.7,16.0,96,69,36,29.94,29.65,12,2,13,0.00
2014-3-9,34.0,26.3,19.0,16.0,8.0,0.0,64,44,29,29.88,29.78,15,2,17,0.00
2014-3-10,36.0,24.7,19.0,24.0,13.3,0.0,87,59,39,29.84,29.66,8,1,9,0.00
2014-3-11,47.0,35.0,27.0,40.0,31.9,23.0,98,88,72,29.67,29.47,12,1,12,0.10
2014-3-12,40.0,32.2,25.0,35.0,30.6,24.0,98,94,78,29.72,29.08,12,2,17,1.32
2014-3-13,32.0,17.3,10.0,31.0,15.3,8.0,97,88,82,29.70,28.97,19,4,25,0.02
2014-3-14,33.0,18.5,2.0,26.0,8.9,0.0,90,66,38,30.07,29.70,13,2,14,0.14
2014-3-15,44.0,37.9,30.0,41.0,35.1,28.0,98,89,75,29.87,29.60,12,2,13,0.16
2014-3-16,32.0,24.9,10.0,32.0,12.2,-6.0,99,57,36,30.14,29.69,24,2,24,0.01
2014-3-17,23.0,13.6,3.0,4.0,-1.6,-6.0,71,46,30,30.15,29.98,14,2,15,0.00
2014-3-18,34.0,20.6,6.0,14.0,3.9,-6.0,73,46,25,30.34,30.11,12,2,15,0.00
2014-3-19,38.0,27.7,14.0,26.0,16.4,8.0,83,62,38,30.42,30.09,9,2,10,0.00
2014-3-20,45.0,37.0,32.0,44.0,35.8,24.0,99,95,72,30.10,29.43,13,1,15,0.91
2014-3-21,42.0,34.5,26.0,33.0,26.8,21.0,100,74,49,29.89,29.57,13,1,16,0.01
2014-3-22,38.0,30.4,20.0,35.0,26.4,18.0,97,84,63,29.97,29.61,13,2,17,0.04
2014-3-23,40.0,28.9,14.0,36.0,17.9,0.0,96,66,32,30.00,29.81,24,2,24,0.00
2014-3-24,26.0,17.3,5.0,4.0,1.7,-6.0,66,46,33,30.06,29.92,14,3,18,0.00
2014-3-25,33.0,20.7,5.0,23.0,11.2,4.0,85,64,38,30.11,30.01,11,2,14,0.00
2014-3-26,28.0,24.4,18.0,24.0,18.0,11.0,90,75,45,30.02,29.39,25,5,30,0.00
2014-3-27,38.0,26.3,13.0,21.0,7.7,0.0,65,43,28,30.20,29.64,23,2,27,0.00
2014-3-28,44.0,37.3,30.0,40.0,33.0,21.0,98,84,65,30.20,29.90,12,1,14,0.06
2014-3-29,53.0,42.7,34.0,41.0,36.2,32.0,100,79,51,30.27,29.93,11,2,13,0.03
2014-3-30,38.0,34.3,32.0,36.0,33.1,31.0,97,96,87,30.19,29.71,18,4,20,2.12
2014-3-31,34.0,31.9,30.0,32.0,30.4,29.0,97,93,86,29.96,29.67,21,6,28,0.03
2014-4-1,48.0,36.0,29.0,29.0,22.4,14.0,92,60,25,30.08,29.92,19,5,19,0.01
2014-4-2,42.0,32.4,25.0,31.0,22.8,11.0,97,67,49,30.12,30.04,11,2,11,0.00
2014-4-3,49.0,36.4,24.0,41.0,27.3,21.0,98,71,40,30.11,30.01,11,2,14,0.00
2014-4-4,46.0,37.0,25.0,36.0,26.5,21.0,84,65,43,30.18,30.09,9,2,9,0.00
2014-4-5,45.0,38.0,33.0,44.0,37.1,28.0,99,96,63,30.10,29.58,15,2,17,0.70
2014-4-6,52.0,43.3,33.0,36.0,31.2,23.0,89,63,38,30.06,29.73,14,2,16,0.01
2014-4-7,60.0,45.2,26.0,42.0,33.3,23.0,95,67,34,30.23,30.06,10,1,11,0.00
2014-4-8,46.0,43.0,37.0,46.0,42.1,33.0,100,97,88,30.07,29.29,20,4,20,0.97
2014-4-9,54.0,42.0,29.0,42.0,27.1,14.0,100,56,41,29.84,29.47,15,3,19,0.00
2014-4-10,50.0,39.1,24.0,39.0,27.3,14.0,93,63,39,30.11,29.84,18,3,21,0.00
2014-4-11,70.0,50.7,42.0,51.0,40.6,32.0,90,70,41,30.00,29.88,11,1,14,0.01
2014-4-12,67.0,53.0,38.0,51.0,36.7,28.0,85,56,29,30.22,29.96,11,2,14,0.00
2014-4-13,42.0,39.5,37.0,39.0,31.6,26.0,96,73,50,30.37,30.21,11,2,14,0.09
2014-4-14,60.0,55.4,40.0,55.0,51.2,39.0,99,86,76,30.21,29.89,14,3,14,0.00
2014-4-15,58.0,55.6,53.0,55.0,53.1,50.0,97,92,85,29.89,29.59,21,6,26,0.26
2014-4-16,54.0,37.2,27.0,53.0,35.6,21.0,98,94,52,30.39,29.60,17,5,17,0.69
2014-4-17,43.0,29.8,22.0,28.0,19.4,14.0,87,65,40,30.82,30.39,7,2,8,0.00
2014-4-18,36.0,34.7,27.0,29.0,28.3,24.0,87,78,76,30.71,30.32,2,0,2,0.00
2014-4-19,48.0,42.5,34.0,33.0,28.6,23.0,65,56,54,30.33,30.20,8,3,9,0.00
2014-4-20,55.0,45.4,29.0,41.0,28.2,23.0,74,52,32,30.51,30.37,10,2,11,0.00
2014-4-21,57.0,50.2,37.0,47.0,35.2,26.0,95,59,35,30.18,29.89,14,2,15,0.00
2014-4-22,56.0,49.0,41.0,47.0,43.6,40.0,97,83,64,29.74,29.52,11,2,11,0.00
2014-4-23,56.0,43.5,38.0,49.0,41.5,37.0,99,93,76,29.52,29.38,17,5,17,0.19
2014-4-24,46.0,40.1,38.0,42.0,37.0,35.0,95,88,78,29.81,29.40,16,7,22,0.02
2014-4-25,59.0,50.2,35.0,45.0,38.3,32.0,90,65,44,29.93,29.85,15,4,16,0.00
2014-4-26,45.0,39.8,33.0,39.0,37.6,32.0,99,92,77,29.89,29.86,5,1,7,0.00
2014-4-27,46.0,42.3,39.0,40.0,39.1,38.0,98,88,73,29.94,29.88,7,2,7,0.00
2014-4-28,49.0,44.3,39.0,40.0,38.0,37.0,93,78,72,30.25,29.95,12,5,13,0.00
2014-4-29,46.0,42.2,40.0,40.0,35.9,33.0,80,77,75,30.55,30.25,5,2,10,0.00
2014-4-30,42.0,41.2,39.0,36.0,36.0,36.0,87,80,78,30.41,30.37,3,2,3,0.00
2014-5-1,49.0,44.8,38.0,49.0,44.8,37.0,100,99,97,30.15,29.65,13,2,14,0.85
2014-5-2,61.0,47.4,41.0,55.0,45.6,39.0,100,94,62,29.76,29.60,4,1,4,0.03
2014-5-3,65.0,48.1,37.0,49.0,41.6,36.0,98,81,40,29.83,29.72,6,1,7,0.00
2014-5-4,55.0,47.5,45.0,50.0,45.8,42.0,97,94,80,29.77,29.45,12,1,12,0.09
2014-5-5,59.0,50.4,42.0,48.0,42.3,37.0,96,76,48,29.74,29.49,14,4,16,0.00
2014-5-6,61.0,49.5,38.0,50.0,43.6,36.0,94,81,57,29.93,29.74,11,2,12,0.02
2014-5-7,68.0,53.2,40.0,50.0,41.5,36.0,88,67,42,30.14,29.93,12,2,12,0.00
2014-5-8,70.0,48.3,34.0,47.0,35.4,26.0,92,67,25,30.24,30.08,11,2,11,0.00
2014-5-9,48.0,44.3,43.0,43.0,31.0,26.0,83,58,41,30.24,30.19,4,0,4,0.00
2014-5-10,58.0,52.7,48.0,58.0,51.7,47.0,100,97,88,29.96,29.68,7,1,11,0.36
2014-5-11,76.0,60.1,49.0,60.0,52.4,38.0,100,80,33,29.90,29.67,13,2,15,0.00
2014-5-12,61.0,56.5,52.0,50.0,47.7,42.0,80,73,63,30.07,29.97,5,3,5,0.00
2014-5-13,59.0,51.7,38.0,48.0,39.3,33.0,90,64,42,30.32,30.28,10,2,10,0.00
2014-5-14,54.0,45.7,35.0,46.0,40.9,33.0,94,84,67,30.38,30.31,13,2,13,0.00
2014-5-15,68.0,52.1,43.0,58.0,48.9,41.0,97,90,68,30.34,30.27,14,1,16,0.00
2014-5-16,69.0,57.7,48.0,59.0,51.9,47.0,99,83,64,30.29,30.16,14,2,17,0.00
2014-5-17,56.0,52.4,49.0,53.0,50.6,49.0,100,95,86,30.16,29.99,15,3,17,0.22
2014-5-18,59.0,52.1,49.0,58.0,51.7,49.0,100,99,93,30.08,29.99,8,1,10,0.10
2014-5-19,57.0,51.4,49.0,57.0,51.4,49.0,100,100,99,29.99,29.90,9,1,11,0.46
2014-5-20,64.0,55.3,51.0,59.0,53.8,51.0,100,95,79,29.96,29.90,14,4,15,0.16
2014-5-21,61.0,55.4,49.0,57.0,53.2,48.0,99,93,80,30.00,29.93,8,1,9,0.00
2014-5-22,67.0,56.1,46.0,59.0,51.4,45.0,100,86,60,29.98,29.88,10,1,11,0.00
2014-5-23,62.0,52.6,41.0,54.0,49.5,41.0,100,90,71,30.01,29.90,8,1,13,0.00
2014-5-24,62.0,50.7,40.0,54.0,46.9,40.0,100,88,71,30.07,29.98,7,1,7,0.00
2014-5-25,48.0,45.4,44.0,48.0,45.0,43.0,99,98,97,30.09,30.03,1,0,2,0.04
2014-6-21,75.0,67.1,57.0,52.0,49.0,47.0,80,55,40,29.86,29.79,11,2,12,0.10
2014-6-22,72.0,61.2,48.0,53.0,49.7,45.0,93,68,48,30.01,29.84,13,2,15,0.00
2014-6-23,77.0,62.9,48.0,55.0,49.5,44.0,96,65,37,30.13,30.00,16,2,16,0.00
2014-6-24,71.0,63.7,53.0,54.0,51.0,44.0,87,65,46,30.14,29.95,22,5,24,0.00
2014-6-25,69.0,63.5,59.0,67.0,59.8,54.0,98,89,76,29.96,29.87,20,2,20,0.18
2014-6-26,61.0,58.5,56.0,61.0,57.1,53.0,100,95,81,29.95,29.80,19,4,19,1.92
2014-6-27,81.0,66.9,54.0,53.0,48.6,44.0,86,56,28,30.16,29.94,15,3,17,0.00
2014-6-28,87.0,68.5,48.0,60.0,52.5,47.0,96,61,33,30.22,30.14,17,2,18,0.00
2014-6-29,86.0,71.2,55.0,60.0,53.3,46.0,87,57,35,30.18,30.03,19,3,19,0.00
2014-6-30,83.0,69.9,56.0,66.0,59.6,51.0,93,71,52,30.04,29.83,15,2,15,0.00
2014-7-1,83.0,71.6,61.0,69.0,64.2,59.0,97,79,61,29.84,29.73,21,3,21,0.00
2014-7-2,82.0,72.4,65.0,70.0,66.4,62.0,93,83,67,29.90,29.73,19,4,20,0.00
2014-7-3,76.0,67.7,61.0,70.0,65.1,60.0,100,93,76,29.96,29.88,11,2,13,0.14
2014-7-4,78.0,68.9,61.0,70.0,65.7,61.0,100,90,74,29.97,29.74,12,2,14,0.55
2014-7-5,65.0,58.8,53.0,64.0,56.8,53.0,99,94,67,29.75,29.48,25,4,27,3.52
2014-7-6,81.0,69.3,55.0,61.0,56.7,53.0,99,68,44,29.81,29.73,18,4,21,0.00
2014-7-7,78.0,67.0,54.0,65.0,59.6,53.0,97,79,52,29.77,29.66,18,3,20,0.00
2014-7-8,81.0,70.3,61.0,71.0,64.9,60.0,99,85,66,29.73,29.65,15,3,18,0.00
2014-7-9,81.0,71.8,62.0,69.0,64.6,60.0,99,80,58,29.88,29.62,20,5,23,0.00
2014-7-10,81.0,70.7,60.0,66.0,58.2,51.0,99,68,40,30.13,29.86,15,2,16,0.00
2014-7-11,83.0,67.2,54.0,58.0,53.5,50.0,91,65,37,30.19,30.11,14,2,14,0.00
2014-7-12,81.0,68.0,52.0,62.0,56.2,50.0,97,70,37,30.18,30.09,15,3,17,0.00
2014-7-13,76.0,67.5,58.0,65.0,60.6,57.0,99,81,59,30.10,29.87,22,5,28,0.00
2014-7-14,85.0,71.6,65.0,71.0,64.8,60.0,98,83,46,29.87,29.80,17,3,19,0.12
2014-7-15,69.0,66.4,64.0,69.0,66.0,63.0,100,99,97,29.86,29.76,12,2,14,0.86
2014-7-16,69.0,66.4,64.0,69.0,66.4,64.0,100,100,100,29.82,29.76,14,2,15,1.70
2014-7-17,81.0,69.9,60.0,72.0,64.4,58.0,100,85,52,30.00,29.79,12,2,14,0.01
2014-7-18,80.0,67.5,55.0,62.0,58.0,54.0,99,75,48,30.19,30.00,15,2,15,0.00
2014-7-19,80.0,67.4,54.0,64.0,58.1,53.0,98,76,48,30.25,30.19,11,1,12,0.00
2014-7-20,75.0,66.6,58.0,64.0,58.9,56.0,98,79,53,30.22,30.16,10,1,12,0.00
2014-7-21,78.0,66.0,53.0,64.0,57.8,52.0,99,78,51,30.19,30.10,9,2,10,0.00
2014-7-22,81.0,68.8,57.0,67.0,62.2,57.0,100,82,57,30.13,29.93,15,2,15,0.00
2014-7-23,82.0,71.7,61.0,72.0,66.7,60.0,100,86,69,29.93,29.68,17,2,18,0.01
2014-7-24,75.0,65.4,57.0,68.0,62.8,56.0,100,93,73,29.84,29.68,14,2,16,0.28
2014-7-25,80.0,66.3,52.0,62.0,56.7,50.0,98,75,47,29.90,29.82,13,3,14,0.00
2014-7-26,79.0,67.1,55.0,65.0,59.8,54.0,99,80,50,29.91,29.83,18,3,19,0.00
2014-7-27,74.0,64.1,56.0,66.0,61.9,56.0,100,94,76,29.85,29.69,16,3,18,0.24
2014-7-28,67.0,64.5,62.0,67.0,64.5,62.0,100,100,100,29.70,29.46,13,3,14,0.25
2014-7-29,80.0,67.9,57.0,67.0,62.2,56.0,100,84,54,29.93,29.46,12,3,15,0.01
2014-7-30,72.0,63.3,55.0,64.0,59.3,55.0,100,88,67,30.03,29.92,17,3,17,0.00
2014-7-31,73.0,64.0,58.0,65.0,61.1,57.0,99,92,73,30.15,30.02,12,2,12,0.00
2014-8-1,80.0,68.1,60.0,67.0,63.8,60.0,100,88,60,30.21,30.13,12,2,14,0.00
2014-8-2,76.0,66.2,58.0,69.0,63.1,57.0,100,91,70,30.22,30.13,12,2,15,0.00
2014-8-3,75.0,64.5,53.0,64.0,58.7,53.0,100,83,65,30.14,30.02,10,2,11,0.00
2014-8-4,77.0,66.4,55.0,66.0,61.0,55.0,100,84,67,30.03,29.94,10,2,12,0.00
2014-8-5,83.0,70.8,59.0,69.0,61.8,58.0,100,77,46,29.98,29.85,13,2,15,0.00
2014-8-6,79.0,66.6,62.0,71.0,64.6,60.0,100,94,66,29.86,29.71,9,1,10,0.03
2014-8-7,78.0,63.5,56.0,65.0,58.9,56.0,100,88,52,29.86,29.75,10,2,13,1.36
2014-8-8,80.0,64.5,56.0,72.0,61.2,56.0,100,91,53,29.94,29.84,13,2,17,0.17
2014-8-9,82.0,68.8,57.0,64.0,59.6,56.0,99,76,46,30.03,29.93,12,2,15,0.00
2014-8-10,77.0,68.3,57.0,64.0,58.7,54.0,97,73,54,30.11,30.02,11,2,14,0.00
2014-8-11,74.0,63.9,54.0,65.0,58.6,54.0,100,85,66,30.14,30.09,9,2,10,0.00
2014-8-12,74.0,63.3,51.0,62.0,57.1,51.0,100,83,58,30.16,30.10,13,2,14,0.00
2014-8-13,64.0,61.0,57.0,61.0,59.3,56.0,99,95,86,30.11,29.72,26,4,31,0.55
2014-8-14,69.0,62.2,56.0,65.0,60.6,55.0,100,96,81,29.82,29.64,25,5,30,0.84
2014-8-15,71.0,62.7,54.0,63.0,58.1,54.0,100,87,61,29.86,29.80,10,2,11,0.00
2014-8-16,72.0,63.0,53.0,61.0,57.3,53.0,100,84,59,29.91,29.83,12,2,16,0.00
2014-8-17,73.0,62.9,58.0,66.0,60.4,57.0,100,93,66,29.89,29.70,8,1,9,0.05
2014-8-18,74.0,63.6,55.0,69.0,58.1,53.0,100,84,58,29.80,29.68,11,2,13,0.07
2014-8-19,76.0,64.7,54.0,60.0,56.1,52.0,96,76,56,29.92,29.79,13,2,15,0.00
2014-8-20,84.0,66.8,53.0,63.0,57.8,51.0,97,76,44,30.05,29.91,13,2,13,0.00
2014-8-21,77.0,65.0,54.0,64.0,59.3,53.0,98,84,64,30.12,30.03,10,2,11,0.00
2014-8-22,71.0,64.7,60.0,61.0,59.4,57.0,94,84,68,30.14,30.09,11,2,12,0.00
2014-8-23,73.0,64.7,54.0,59.0,55.6,52.0,95,75,53,30.12,30.07,13,3,15,0.00
2014-8-24,84.0,65.3,52.0,65.0,58.1,51.0,97,81,46,30.10,30.02,15,1,95,0.00
2014-8-25,83.0,67.4,56.0,68.0,61.4,56.0,100,84,59,30.11,30.03,249,1,249,0.00
2014-8-26,78.0,68.1,61.0,68.0,62.7,59.0,100,85,63,30.12,29.97,16,3,17,0.00
2014-8-27,83.0,68.7,60.0,68.0,63.4,59.0,99,85,56,29.98,29.78,11,2,36,0.00
2014-8-28,77.0,66.9,58.0,64.0,57.1,50.0,96,73,41,29.87,29.69,11,2,12,0.13
2014-8-29,75.0,61.6,51.0,53.0,48.5,43.0,91,66,33,30.23,29.88,18,3,18,0.00
2014-8-30,69.0,59.1,46.0,59.0,52.6,45.0,99,81,50,30.27,30.08,17,4,22,0.00
2014-8-31,74.0,66.1,60.0,68.0,63.3,57.0,99,92,78,30.08,29.89,15,4,20,0.15
2014-9-1,82.0,70.6,64.0,74.0,68.0,63.0,100,93,70,29.93,29.87,8,2,10,0.04
2014-9-2,67.0,63.3,60.0,66.0,63.0,60.0,100,100,98,29.93,29.72,10,2,10,0.01
2014-9-3,84.0,71.8,59.0,71.0,62.0,55.0,100,75,40,30.00,29.63,15,2,20,0.01
2014-9-4,79.0,65.3,54.0,60.0,55.4,53.0,95,74,42,30.12,30.00,16,3,18,0.00
2014-9-5,83.0,69.7,56.0,67.0,61.8,55.0,98,78,51,30.10,29.88,17,2,18,0.00
2014-9-6,80.0,70.9,62.0,72.0,67.2,61.0,99,89,76,29.90,29.67,18,4,20,0.61
2014-9-7,76.0,63.1,53.0,61.0,54.2,49.0,99,77,41,30.18,29.84,11,2,14,0.00
2014-9-8,69.0,58.1,44.0,51.0,45.4,39.0,96,66,37,30.40,30.17,11,3,12,0.00
2014-9-9,67.0,54.0,42.0,53.0,45.7,39.0,99,78,37,30.42,30.21,11,2,11,0.00
2014-9-10,68.0,56.2,44.0,59.0,52.3,44.0,100,88,67,30.22,30.02,15,2,15,0.00
2014-9-11,66.0,60.1,54.0,64.0,58.8,54.0,100,96,80,30.03,29.74,18,3,21,0.17
2014-9-12,68.0,58.1,49.0,63.0,48.6,43.0,100,73,47,30.22,29.77,14,2,17,0.01
2014-9-13,62.0,54.2,46.0,54.0,46.5,40.0,97,77,55,30.32,30.07,13,3,16,0.07
2014-9-14,64.0,54.4,41.0,55.0,47.8,39.0,100,80,55,30.19,30.03,14,2,16,0.01
2014-9-15,64.0,50.4,40.0,47.0,41.7,39.0,97,75,43,30.20,30.06,12,2,12,0.00
2014-9-16,63.0,54.1,48.0,54.0,50.6,47.0,99,89,68,30.07,29.92,14,2,15,0.01
2014-9-17,69.0,55.5,45.0,56.0,47.6,43.0,100,79,43,29.98,29.91,13,2,16,0.00
2014-9-18,69.0,55.1,44.0,58.0,46.5,35.0,100,76,44,30.11,29.86,12,2,15,0.00
2014-9-19,59.0,45.3,34.0,38.0,31.5,24.0,93,63,25,30.38,30.11,18,2,20,0.00
2014-9-20,61.0,53.4,39.0,56.0,45.5,35.0,85,75,61,30.36,30.03,29,5,30,0.00
2014-9-21,70.0,62.2,57.0,66.0,60.2,54.0,100,94,85,30.04,29.53,17,3,20,0.14
2014-9-22,72.0,62.1,46.0,67.0,54.6,39.0,100,79,48,29.95,29.42,22,4,26,0.15
2014-9-23,66.0,50.6,39.0,49.0,42.6,37.0,97,77,48,30.37,29.95,15,2,18,0.00
2014-9-24,61.0,51.3,42.0,48.0,43.3,40.0,98,77,50,30.64,30.36,11,2,13,0.00
2014-9-25,64.0,51.1,41.0,56.0,46.3,41.0,100,86,51,30.54,30.22,10,2,10,0.00
2014-9-26,75.0,57.9,42.0,60.0,52.1,42.0,100,84,56,30.23,30.09,8,2,10,0.00
2014-9-27,84.0,65.5,51.0,63.0,56.7,50.0,99,78,44,30.12,30.05,11,2,13,0.00
2014-9-28,80.0,64.2,52.0,63.0,57.8,52.0,100,83,53,30.12,29.92,13,2,14,0.00
2014-9-29,69.0,57.3,51.0,64.0,54.3,49.0,100,90,76,30.09,29.90,22,4,22,0.00
2014-9-30,56.0,52.1,48.0,54.0,51.3,48.0,100,97,93,30.06,30.00,13,3,14,0.01
2014-10-1,61.0,56.6,54.0,54.0,53.1,51.0,94,88,78,30.17,30.04,14,3,15,0.00
2014-10-2,68.0,55.3,48.0,51.0,47.4,42.0,97,77,46,30.21,30.11,14,3,15,0.00
2014-10-3,65.0,54.4,46.0,54.0,48.2,42.0,96,81,57,30.15,29.90,15,3,16,0.00
2014-10-4,61.0,58.0,54.0,61.0,56.9,51.0,100,96,85,29.91,29.59,18,4,19,0.21
2014-10-5,65.0,57.9,45.0,62.0,55.5,44.0,100,92,66,29.88,29.53,16,3,19,0.59
2014-10-6,63.0,49.8,37.0,52.0,42.3,37.0,100,80,43,30.19,29.87,15,2,17,0.00
2014-10-7,64.0,57.3,44.0,59.0,51.9,44.0,100,84,63,30.19,30.02,18,5,22,0.00
2014-10-8,66.0,60.5,53.0,62.0,57.4,48.0,98,90,77,30.02,29.62,18,4,25,0.36
2014-10-9,60.0,51.8,42.0,50.0,41.9,37.0,97,72,44,29.88,29.73,20,3,20,0.00
2014-10-10,61.0,47.7,38.0,43.0,38.0,36.0,94,72,41,30.07,29.87,16,3,19,0.00
2014-10-11,53.0,42.5,36.0,45.0,39.6,35.0,98,90,65,30.12,30.02,6,1,6,0.00
2014-10-12,62.0,45.3,34.0,46.0,37.7,33.0,99,78,40,30.25,30.05,13,2,15,0.00
2014-10-13,62.0,49.8,36.0,52.0,43.5,35.0,100,81,49,30.32,30.20,20,4,22,0.00
2014-10-14,67.0,59.6,53.0,61.0,56.7,50.0,98,91,83,30.21,30.10,22,4,23,0.00
2014-10-15,72.0,64.1,60.0,66.0,61.7,58.0,99,93,80,30.12,30.02,19,4,20,0.00
2014-10-16,65.0,62.9,61.0,65.0,62.6,60.0,100,100,99,30.03,29.76,22,3,22,0.74
2014-10-17,64.0,61.4,55.0,64.0,60.0,54.0,100,96,85,29.77,29.53,22,4,22,1.64
2014-10-18,65.0,58.7,52.0,60.0,57.2,52.0,100,95,84,29.64,29.46,18,3,18,0.11
2014-10-19,53.0,46.5,37.0,53.0,40.6,32.0,100,81,54,29.77,29.47,17,2,17,0.01
2014-10-20,53.0,42.6,32.0,38.0,32.0,28.0,90,68,38,29.97,29.77,19,3,20,0.00
2014-10-21,54.0,48.2,41.0,50.0,44.1,38.0,99,87,68,30.12,29.97,18,4,18,0.44
2014-10-22,50.0,47.3,46.0,49.0,46.8,45.0,99,98,95,30.15,30.01,28,8,30,0.65
2014-10-23,52.0,50.3,47.0,52.0,50.3,46.0,100,99,98,30.01,29.64,30,9,32,2.86
2014-10-24,51.0,48.2,44.0,51.0,48.1,44.0,100,99,97,29.67,29.57,20,4,20,0.13
2014-10-25,65.0,50.4,44.0,48.0,43.5,38.0,99,81,39,29.64,29.43,12,2,13,0.00
2014-10-26,61.0,50.1,42.0,53.0,46.4,40.0,100,88,60,29.52,29.33,18,2,18,0.02
2014-10-27,56.0,48.0,39.0,44.0,39.9,38.0,96,75,54,29.92,29.51,23,3,24,0.00
2014-10-28,53.0,45.9,39.0,50.0,42.7,37.0,94,88,77,30.09,29.91,13,3,14,0.00
2014-10-29,58.0,55.3,51.0,57.0,54.3,50.0,100,97,92,29.97,29.72,14,3,14,0.15
2014-10-30,56.0,47.3,39.0,51.0,43.3,35.0,100,87,60,29.94,29.75,13,2,14,0.02
2014-10-31,53.0,44.0,35.0,38.0,35.5,32.0,92,73,49,30.04,29.94,12,3,12,0.00
2014-11-1,44.0,40.5,34.0,42.0,37.9,35.0,98,90,75,29.99,29.80,25,6,25,0.65
2014-11-2,35.0,32.7,31.0,35.0,32.6,31.0,100,99,97,29.81,29.27,34,6,34,0.07
2014-11-3,45.0,33.2,28.0,42.0,31.0,24.0,100,91,76,29.95,29.50,14,1,14,0.70
2014-11-4,48.0,37.7,29.0,45.0,31.6,24.0,93,78,56,30.14,29.94,12,2,12,0.52
2014-11-5,58.0,47.7,36.0,50.0,44.5,35.0,98,89,64,30.04,29.85,16,2,16,0.03
2014-11-6,47.0,41.5,33.0,46.0,40.5,32.0,100,97,88,30.04,29.54,14,2,14,0.46
2014-11-7,45.0,39.5,33.0,45.0,39.1,31.0,100,99,90,29.55,29.28,22,4,22,0.21
2014-11-8,43.0,34.9,28.0,32.0,26.0,23.0,91,71,43,29.88,29.54,25,3,25,0.00
2014-11-9,52.0,41.8,33.0,41.0,36.6,28.0,95,82,60,29.95,29.82,19,2,19,0.00
2014-11-10,53.0,40.4,29.0,40.0,35.2,28.0,100,83,57,30.20,29.94,16,2,17,0.00
2014-11-11,57.0,46.5,34.0,51.0,43.2,35.0,100,90,60,30.19,29.99,19,2,19,0.00
2014-11-12,55.0,51.2,41.0,54.0,50.6,39.0,100,98,93,30.00,29.82,11,3,11,0.00
2014-11-13,47.0,38.9,31.0,39.0,30.4,26.0,96,73,45,30.01,29.90,10,2,14,0.00
2014-11-14,38.0,31.5,24.0,35.0,30.4,23.0,99,95,83,29.96,29.80,7,1,10,0.22
2014-11-15,35.0,26.7,21.0,26.0,20.8,16.0,96,79,55,30.23,29.96,18,2,19,0.03
2014-11-16,39.0,31.0,19.0,32.0,24.9,16.0,94,78,61,30.30,30.08,15,2,15,0.08
2014-11-17,49.0,37.3,33.0,49.0,35.3,28.0,100,92,75,30.08,29.33,19,3,19,0.70
2014-11-18,43.0,33.8,26.0,42.0,29.2,11.0,100,83,51,29.70,29.30,23,4,23,0.05
2014-11-19,35.0,27.0,21.0,21.0,15.2,11.0,81,59,41,30.04,29.69,24,5,24,0.00
2014-11-20,42.0,33.0,26.0,31.0,22.2,14.0,88,63,49,30.00,29.68,25,4,25,0.00
2014-11-21,34.0,26.5,19.0,18.0,12.2,8.0,66,52,38,30.23,29.75,24,4,25,0.00
2014-11-22,41.0,28.4,13.0,24.0,16.8,8.0,80,60,44,30.26,29.88,19,5,23,0.00
2014-11-23,54.0,42.4,37.0,39.0,33.0,21.0,98,70,50,30.14,29.88,13,2,15,0.00
2014-11-24,59.0,52.0,38.0,59.0,51.8,38.0,100,99,97,30.11,29.55,35,8,35,1.05
2014-11-25,58.0,53.0,40.0,55.0,46.8,32.0,98,81,55,30.03,29.59,20,4,20,0.00
2014-11-26,41.0,36.0,32.0,32.0,30.7,26.0,100,81,58,30.23,29.66,21,2,21,0.00
2014-11-27,33.0,29.2,23.0,32.0,27.1,18.0,100,91,83,29.99,29.55,29,4,29,0.06
2014-11-28,28.0,22.1,18.0,23.0,18.4,14.0,94,83,72,30.07,29.95,13,2,13,0.00
2014-11-29,29.0,19.8,13.0,23.0,16.4,11.0,94,84,66,30.28,30.07,11,2,11,0.03
2014-11-30,50.0,41.6,20.0,47.0,39.2,18.0,96,91,86,30.23,29.92,20,4,23,0.41
2014-12-1,59.0,46.2,30.0,48.0,38.5,16.0,88,75,46,30.40,29.88,21,5,23,0.00
2014-12-2,30.0,23.7,20.0,18.0,10.1,4.0,67,53,40,30.74,30.39,16,4,17,0.00
2014-12-3,50.0,40.0,22.0,50.0,39.3,14.0,100,97,68,30.50,29.73,15,4,22,1.32
2014-12-4,40.0,30.6,17.0,36.0,19.0,4.0,96,62,32,30.54,29.85,26,4,27,0.00
2014-12-5,28.0,19.4,12.0,24.0,10.4,4.0,84,65,44,30.71,30.50,14,2,14,0.00
2014-12-6,41.0,34.9,28.0,41.0,34.6,24.0,100,97,84,30.50,30.00,16,3,17,0.92
2014-12-7,33.0,23.1,8.0,33.0,18.3,0.0,100,80,60,30.69,30.18,21,4,21,0.04
2014-12-8,21.0,13.5,5.0,14.0,4.5,0.0,71,60,44,30.78,30.59,17,3,17,0.00
2014-12-9,41.0,33.9,20.0,40.0,32.3,14.0,99,93,72,30.60,29.75,32,7,34,2.55
2014-12-10,44.0,38.9,37.0,44.0,38.9,37.0,100,100,99,29.77,29.37,34,10,36,0.99
2014-12-11,46.0,40.5,36.0,43.0,38.9,35.0,100,94,77,29.74,29.44,19,3,20,0.15
2014-12-12,40.0,36.4,33.0,40.0,35.8,33.0,100,97,89,29.80,29.70,9,2,18,0.06
2014-12-13,37.0,34.9,33.0,37.0,35.0,33.0,100,100,99,29.70,29.65,10,2,11,0.01
2014-12-14,42.0,35.9,31.0,39.0,34.9,29.0,100,95,88,29.80,29.68,15,2,15,0.00
2014-12-15,33.0,31.6,29.0,31.0,29.0,28.0,97,90,85,30.14,29.79,17,3,17,0.00
2014-12-16,40.0,35.3,30.0,40.0,33.6,28.0,100,93,85,30.17,29.98,12,2,12,0.05
2014-12-17,45.0,41.3,37.0,45.0,41.3,37.0,100,100,100,29.98,29.53,22,4,22,0.70
2014-12-18,37.0,34.6,32.0,37.0,34.4,31.0,100,98,93,29.70,29.52,20,3,20,0.10
2014-12-19,36.0,31.2,26.0,32.0,29.0,24.0,96,91,83,30.08,29.69,15,2,15,0.00
2014-12-20,28.0,26.2,23.0,26.0,23.7,18.0,93,89,85,30.31,30.08,19,4,19,0.00
2014-12-21,37.0,31.5,27.0,33.0,29.2,26.0,95,91,86,30.35,30.27,12,2,12,0.01
2014-12-22,39.0,34.7,30.0,35.0,32.3,29.0,97,90,81,30.41,30.34,11,2,12,0.01
2014-12-23,40.0,38.1,35.0,40.0,37.9,33.0,100,99,93,30.38,30.21,17,4,17,0.10
2014-12-24,60.0,44.7,39.0,60.0,44.7,39.0,100,100,100,30.21,29.57,15,4,15,1.01
2014-12-25,63.0,55.0,44.0,63.0,51.1,32.0,100,87,61,29.73,29.35,27,7,27,0.67
2014-12-26,50.0,41.9,33.0,33.0,30.9,28.0,87,65,45,30.03,29.73,25,4,25,0.00
2014-12-27,49.0,37.8,30.0,36.0,31.2,28.0,96,78,54,30.11,29.92,18,2,18,0.00
2014-12-28,45.0,40.6,32.0,45.0,38.7,28.0,99,93,74,29.92,29.60,20,4,20,0.77
2014-12-29,39.0,30.3,19.0,28.0,17.9,8.0,93,60,33,30.13,29.85,20,3,21,0.00
2014-12-30,22.0,15.1,6.0,11.0,4.8,0.0,77,59,33,30.26,30.12,18,2,18,0.00
2014-12-31,24.0,14.5,6.0,8.0,3.7,0.0,79,59,39,30.20,30.01,21,2,22,0.00
2015-1-1,29.0,24.4,10.0,16.0,10.5,4.0,79,53,36,30.01,29.79,19,4,20,0.00
2015-1-2,34.0,26.3,15.0,18.0,10.0,0.0,66,48,34,30.36,29.78,34,5,34,0.03